sensor_id;sensor_type;location;lat;lon;timestamp;pressure;altitude;pressure_sealevel;temperature;humidity
11710;BME280;5911;51.036;6.972;2023-03-01T00:01:51;102111.31;;;3.38;74.68
11710;BME280;5911;51.036;6.972;2023-03-01T00:04:26;102113.06;;;3.37;75.21
11710;BME280;5911;51.036;6.972;2023-03-01T00:06:54;102103.72;;;3.30;75.58
11710;BME280;5911;51.036;6.972;2023-03-01T00:09:22;102075.50;;;3.13;76.89
11710;BME280;5911;51.036;6.972;2023-03-01T00:11:50;102113.94;;;3.36;76.95
11710;BME280;5911;51.036;6.972;2023-03-01T00:14:18;102110.63;;;3.31;76.90
11710;BME280;5911;51.036;6.972;2023-03-01T00:16:46;102112.44;;;3.29;76.97
11710;BME280;5911;51.036;6.972;2023-03-01T00:19:16;102111.75;;;3.21;76.18
11710;BME280;5911;51.036;6.972;2023-03-01T00:21:45;102108.44;;;3.16;75.79
11710;BME280;5911;51.036;6.972;2023-03-01T00:24:13;102103.94;;;3.21;75.33
11710;BME280;5911;51.036;6.972;2023-03-01T00:26:41;102100.63;;;3.16;76.09
11710;BME280;5911;51.036;6.972;2023-03-01T00:29:09;102111.06;;;3.16;76.38
11710;BME280;5911;51.036;6.972;2023-03-01T00:31:37;102110.19;;;3.15;76.96
11710;BME280;5911;51.036;6.972;2023-03-01T00:34:05;102102.56;;;3.08;76.87
11710;BME280;5911;51.036;6.972;2023-03-01T00:36:36;102069.28;;;2.87;76.00
11710;BME280;5911;51.036;6.972;2023-03-01T00:39:09;102102.72;;;3.03;76.17
11710;BME280;5911;51.036;6.972;2023-03-01T00:41:38;102106.31;;;2.98;76.35
11710;BME280;5911;51.036;6.972;2023-03-01T00:44:07;102100.28;;;2.96;76.82
11710;BME280;5911;51.036;6.972;2023-03-01T00:46:35;102106.59;;;2.87;76.60
11710;BME280;5911;51.036;6.972;2023-03-01T00:49:03;102095.97;;;2.95;76.68
11710;BME280;5911;51.036;6.972;2023-03-01T00:51:33;102089.97;;;2.91;77.68
11710;BME280;5911;51.036;6.972;2023-03-01T00:54:02;102083.22;;;2.84;77.46
11710;BME280;5911;51.036;6.972;2023-03-01T00:56:30;102094.34;;;2.91;77.35
11710;BME280;5911;51.036;6.972;2023-03-01T00:58:59;102091.84;;;2.88;77.28
11710;BME280;5911;51.036;6.972;2023-03-01T01:01:29;102087.59;;;2.83;76.98
11710;BME280;5911;51.036;6.972;2023-03-01T01:04:00;102084.13;;;2.83;76.75
11710;BME280;5911;51.036;6.972;2023-03-01T01:06:30;102088.41;;;2.86;75.33
11710;BME280;5911;51.036;6.972;2023-03-01T01:09:00;102066.19;;;2.72;74.92
11710;BME280;5911;51.036;6.972;2023-03-01T01:11:29;102079.81;;;2.82;75.86
11710;BME280;5911;51.036;6.972;2023-03-01T01:13:58;102073.88;;;2.75;76.09
11710;BME280;5911;51.036;6.972;2023-03-01T01:16:29;102066.19;;;2.72;76.26
11710;BME280;5911;51.036;6.972;2023-03-01T01:18:57;102054.94;;;2.70;75.48
11710;BME280;5911;51.036;6.972;2023-03-01T01:21:27;102065.28;;;2.73;75.72
11710;BME280;5911;51.036;6.972;2023-03-01T01:23:55;102062.72;;;2.72;76.28
11710;BME280;5911;51.036;6.972;2023-03-01T01:26:27;102058.56;;;2.63;77.01
11710;BME280;5911;51.036;6.972;2023-03-01T01:28:56;102060.94;;;2.74;78.38
11710;BME280;5911;51.036;6.972;2023-03-01T01:31:25;102031.78;;;2.60;77.15
11710;BME280;5911;51.036;6.972;2023-03-01T01:33:56;102044.66;;;2.64;78.16
11710;BME280;5911;51.036;6.972;2023-03-01T01:36:24;102044.66;;;2.64;78.22
11710;BME280;5911;51.036;6.972;2023-03-01T01:38:52;102037.81;;;2.60;77.29
11710;BME280;5911;51.036;6.972;2023-03-01T01:41:20;102039.53;;;2.61;76.45
11710;BME280;5911;51.036;6.972;2023-03-01T01:44:11;102027.59;;;2.53;75.29
11710;BME280;5911;51.036;6.972;2023-03-01T01:46:40;102030.25;;;2.51;75.82
11710;BME280;5911;51.036;6.972;2023-03-01T01:49:22;102024.28;;;2.46;76.70
11710;BME280;5911;51.036;6.972;2023-03-01T01:51:55;102003.84;;;2.31;77.32
11710;BME280;5911;51.036;6.972;2023-03-01T01:54:27;102019.09;;;2.46;77.84
11710;BME280;5911;51.036;6.972;2023-03-01T01:57:00;102018.22;;;2.45;77.18
11710;BME280;5911;51.036;6.972;2023-03-01T01:59:32;101996.84;;;2.33;77.21
11710;BME280;5911;51.036;6.972;2023-03-01T02:02:03;102005.34;;;2.41;78.02
11710;BME280;5911;51.036;6.972;2023-03-01T02:04:35;102007.13;;;2.39;78.16
11710;BME280;5911;51.036;6.972;2023-03-01T02:07:06;101989.19;;;2.28;76.98
11710;BME280;5911;51.036;6.972;2023-03-01T02:09:36;101995.25;;;2.29;77.14
11710;BME280;5911;51.036;6.972;2023-03-01T02:12:05;102002.13;;;2.30;78.29
11710;BME280;5911;51.036;6.972;2023-03-01T02:14:35;102003.00;;;2.30;78.43
11710;BME280;5911;51.036;6.972;2023-03-01T02:17:02;102005.66;;;2.29;79.40
11710;BME280;5911;51.036;6.972;2023-03-01T02:19:39;101992.91;;;2.18;78.91
11710;BME280;5911;51.036;6.972;2023-03-01T02:22:18;101997.41;;;2.11;79.05
11710;BME280;5911;51.036;6.972;2023-03-01T02:24:58;102011.25;;;2.14;79.11
11710;BME280;5911;51.036;6.972;2023-03-01T02:27:35;101997.56;;;2.05;77.80
11710;BME280;5911;51.036;6.972;2023-03-01T02:30:07;101995.66;;;2.12;79.49
11710;BME280;5911;51.036;6.972;2023-03-01T02:32:39;102000.19;;;2.04;78.40
11710;BME280;5911;51.036;6.972;2023-03-01T02:35:09;102002.00;;;2.00;78.00
11710;BME280;5911;51.036;6.972;2023-03-01T02:37:39;102014.88;;;2.06;78.70
11710;BME280;5911;51.036;6.972;2023-03-01T02:40:09;102002.75;;;2.05;78.38
11710;BME280;5911;51.036;6.972;2023-03-01T02:42:45;102006.25;;;2.04;79.69
11710;BME280;5911;51.036;6.972;2023-03-01T02:45:16;101998.41;;;2.06;80.12
11710;BME280;5911;51.036;6.972;2023-03-01T02:47:44;102012.38;;;2.02;78.57
11710;BME280;5911;51.036;6.972;2023-03-01T02:50:19;102002.88;;;1.99;79.36
11710;BME280;5911;51.036;6.972;2023-03-01T02:52:55;101995.91;;;2.01;80.76
11710;BME280;5911;51.036;6.972;2023-03-01T02:55:27;101997.78;;;1.96;79.53
11710;BME280;5911;51.036;6.972;2023-03-01T02:57:56;101993.50;;;1.94;79.66
11710;BME280;5911;51.036;6.972;2023-03-01T03:00:28;101994.34;;;1.94;79.59
11710;BME280;5911;51.036;6.972;2023-03-01T03:02:59;101983.28;;;1.85;80.26
11710;BME280;5911;51.036;6.972;2023-03-01T03:05:29;101989.34;;;1.85;80.52
11710;BME280;5911;51.036;6.972;2023-03-01T03:07:59;101984.16;;;1.85;81.07
11710;BME280;5911;51.036;6.972;2023-03-01T03:10:33;101968.69;;;1.79;80.06
11710;BME280;5911;51.036;6.972;2023-03-01T03:13:04;101986.91;;;1.79;79.45
11710;BME280;5911;51.036;6.972;2023-03-01T03:15:34;101969.53;;;1.81;80.50
11710;BME280;5911;51.036;6.972;2023-03-01T03:18:05;101972.88;;;1.85;81.51
11710;BME280;5911;51.036;6.972;2023-03-01T03:20:34;101972.94;;;1.83;80.31
11710;BME280;5911;51.036;6.972;2023-03-01T03:23:02;101964.50;;;1.73;81.13
11710;BME280;5911;51.036;6.972;2023-03-01T03:25:30;101970.72;;;1.68;79.26
11710;BME280;5911;51.036;6.972;2023-03-01T03:27:58;101980.06;;;1.75;79.32
11710;BME280;5911;51.036;6.972;2023-03-01T03:30:28;101963.56;;;1.76;80.24
11710;BME280;5911;51.036;6.972;2023-03-01T03:32:59;101967.94;;;1.74;80.88
11710;BME280;5911;51.036;6.972;2023-03-01T03:35:29;101973.13;;;1.75;79.97
11710;BME280;5911;51.036;6.972;2023-03-01T03:37:58;101970.44;;;1.79;80.60
11710;BME280;5911;51.036;6.972;2023-03-01T03:40:30;101969.69;;;1.73;80.18
11710;BME280;5911;51.036;6.972;2023-03-01T03:42:58;101972.31;;;1.72;80.01
11710;BME280;5911;51.036;6.972;2023-03-01T03:45:27;101975.72;;;1.75;80.55
11710;BME280;5911;51.036;6.972;2023-03-01T03:48:03;101923.63;;;1.41;81.16
11710;BME280;5911;51.036;6.972;2023-03-01T03:50:31;101945.00;;;1.54;80.17
11710;BME280;5911;51.036;6.972;2023-03-01T03:53:00;101966.41;;;1.67;80.33
11710;BME280;5911;51.036;6.972;2023-03-01T03:55:28;101963.69;;;1.70;80.33
11710;BME280;5911;51.036;6.972;2023-03-01T03:57:57;101956.88;;;1.66;81.97
11710;BME280;5911;51.036;6.972;2023-03-01T04:00:28;101941.41;;;1.60;80.53
11710;BME280;5911;51.036;6.972;2023-03-01T04:02:56;101956.09;;;1.62;80.31
11710;BME280;5911;51.036;6.972;2023-03-01T04:05:26;101931.22;;;1.51;81.49
11710;BME280;5911;51.036;6.972;2023-03-01T04:07:55;101941.28;;;1.66;81.41
11710;BME280;5911;51.036;6.972;2023-03-01T04:10:35;101943.91;;;1.64;80.82
11710;BME280;5911;51.036;6.972;2023-03-01T04:13:04;101944.00;;;1.60;78.64
11710;BME280;5911;51.036;6.972;2023-03-01T04:15:32;101944.91;;;1.59;79.31
11710;BME280;5911;51.036;6.972;2023-03-01T04:18:00;101946.63;;;1.60;80.47
11710;BME280;5911;51.036;6.972;2023-03-01T04:20:32;101931.31;;;1.48;80.29
11710;BME280;5911;51.036;6.972;2023-03-01T04:23:02;101944.91;;;1.59;79.59
11710;BME280;5911;51.036;6.972;2023-03-01T04:25:39;101933.59;;;1.60;81.07
11710;BME280;5911;51.036;6.972;2023-03-01T04:28:09;101940.63;;;1.56;80.58
11710;BME280;5911;51.036;6.972;2023-03-01T04:30:37;101931.13;;;1.54;81.69
11710;BME280;5911;51.036;6.972;2023-03-01T04:33:07;101938.06;;;1.55;80.51
11710;BME280;5911;51.036;6.972;2023-03-01T04:35:37;101934.59;;;1.54;80.38
11710;BME280;5911;51.036;6.972;2023-03-01T04:38:06;101935.59;;;1.50;80.82
11710;BME280;5911;51.036;6.972;2023-03-01T04:40:34;101937.28;;;1.51;80.79
11710;BME280;5911;51.036;6.972;2023-03-01T04:43:03;101933.00;;;1.49;80.32
11710;BME280;5911;51.036;6.972;2023-03-01T04:45:32;101938.22;;;1.49;81.21
11710;BME280;5911;51.036;6.972;2023-03-01T04:48:02;101928.72;;;1.46;79.60
11710;BME280;5911;51.036;6.972;2023-03-01T04:50:33;101922.78;;;1.41;79.32
11710;BME280;5911;51.036;6.972;2023-03-01T04:53:02;101933.06;;;1.46;79.63
11710;BME280;5911;51.036;6.972;2023-03-01T04:55:30;101931.44;;;1.41;80.04
11710;BME280;5911;51.036;6.972;2023-03-01T04:57:58;101917.59;;;1.39;81.60
11710;BME280;5911;51.036;6.972;2023-03-01T05:00:26;101914.97;;;1.41;82.01
11710;BME280;5911;51.036;6.972;2023-03-01T05:02:56;101909.06;;;1.34;80.76
11710;BME280;5911;51.036;6.972;2023-03-01T05:05:26;101900.53;;;1.29;80.72
11710;BME280;5911;51.036;6.972;2023-03-01T05:07:56;101921.25;;;1.32;81.22
11710;BME280;5911;51.036;6.972;2023-03-01T05:10:26;101924.66;;;1.34;81.43
11710;BME280;5911;51.036;6.972;2023-03-01T05:12:59;101928.16;;;1.33;80.98
11710;BME280;5911;51.036;6.972;2023-03-01T05:15:31;101906.56;;;1.30;81.43
11710;BME280;5911;51.036;6.972;2023-03-01T05:18:07;101922.00;;;1.37;80.88
11710;BME280;5911;51.036;6.972;2023-03-01T05:20:38;101907.66;;;1.21;81.22
11710;BME280;5911;51.036;6.972;2023-03-01T05:23:06;101901.50;;;1.24;81.29
11710;BME280;5911;51.036;6.972;2023-03-01T05:25:35;101828.19;;;0.73;80.47
11710;BME280;5911;51.036;6.972;2023-03-01T05:28:10;101936.00;;;1.32;81.38
11710;BME280;5911;51.036;6.972;2023-03-01T05:30:39;101928.28;;;1.27;81.46
11710;BME280;5911;51.036;6.972;2023-03-01T05:33:08;101900.06;;;1.11;81.56
11710;BME280;5911;51.036;6.972;2023-03-01T05:35:41;101928.97;;;1.35;81.24
11710;BME280;5911;51.036;6.972;2023-03-01T05:38:09;101920.50;;;1.27;81.42
11710;BME280;5911;51.036;6.972;2023-03-01T05:40:41;101925.00;;;1.19;80.93
11710;BME280;5911;51.036;6.972;2023-03-01T05:43:11;101898.53;;;1.02;81.03
11710;BME280;5911;51.036;6.972;2023-03-01T05:45:40;101925.78;;;1.23;81.17
11710;BME280;5911;51.036;6.972;2023-03-01T05:48:09;101917.25;;;1.18;81.86
11710;BME280;5911;51.036;6.972;2023-03-01T05:50:38;101890.75;;;1.02;82.47
11710;BME280;5911;51.036;6.972;2023-03-01T05:53:08;101902.63;;;1.12;82.00
11710;BME280;5911;51.036;6.972;2023-03-01T05:55:37;101914.63;;;1.19;81.30
11710;BME280;5911;51.036;6.972;2023-03-01T05:58:09;101918.94;;;1.20;81.68
11710;BME280;5911;51.036;6.972;2023-03-01T06:00:37;101918.16;;;1.15;82.17
11710;BME280;5911;51.036;6.972;2023-03-01T06:03:06;101916.44;;;1.14;81.31
11710;BME280;5911;51.036;6.972;2023-03-01T06:05:33;101918.25;;;1.11;82.69
11710;BME280;5911;51.036;6.972;2023-03-01T06:08:02;101902.78;;;1.06;81.32
11710;BME280;5911;51.036;6.972;2023-03-01T06:10:30;101888.22;;;0.99;82.87
11710;BME280;5911;51.036;6.972;2023-03-01T06:12:58;101887.31;;;1.00;83.04
11710;BME280;5911;51.036;6.972;2023-03-01T06:15:28;101909.53;;;1.13;83.46
11710;BME280;5911;51.036;6.972;2023-03-01T06:17:56;101906.88;;;1.16;82.76
11710;BME280;5911;51.036;6.972;2023-03-01T06:20:27;101907.78;;;1.15;83.15
11710;BME280;5911;51.036;6.972;2023-03-01T06:22:56;101872.00;;;0.88;83.27
11710;BME280;5911;51.036;6.972;2023-03-01T06:25:26;101914.69;;;1.16;82.91
11710;BME280;5911;51.036;6.972;2023-03-01T06:27:54;101908.56;;;1.19;83.66
11710;BME280;5911;51.036;6.972;2023-03-01T06:30:23;101914.63;;;1.19;84.26
11710;BME280;5911;51.036;6.972;2023-03-01T06:32:53;101910.28;;;1.20;83.44
11710;BME280;5911;51.036;6.972;2023-03-01T06:35:27;101912.84;;;1.21;83.15
11710;BME280;5911;51.036;6.972;2023-03-01T06:37:57;101900.09;;;1.09;83.38
11710;BME280;5911;51.036;6.972;2023-03-01T06:40:25;101897.59;;;1.06;83.53
11710;BME280;5911;51.036;6.972;2023-03-01T06:42:53;101900.81;;;1.17;83.85
11710;BME280;5911;51.036;6.972;2023-03-01T06:45:21;101912.97;;;1.15;83.68
11710;BME280;5911;51.036;6.972;2023-03-01T06:47:49;101914.53;;;1.22;84.38
11710;BME280;5911;51.036;6.972;2023-03-01T06:50:18;101912.75;;;1.24;84.43
11710;BME280;5911;51.036;6.972;2023-03-01T06:52:46;101907.53;;;1.26;84.60
11710;BME280;5911;51.036;6.972;2023-03-01T06:55:14;101898.69;;;1.34;83.89
11710;BME280;5911;51.036;6.972;2023-03-01T06:57:42;101897.03;;;1.30;84.27
11710;BME280;5911;51.036;6.972;2023-03-01T07:00:11;101885.22;;;1.17;85.50
11710;BME280;5911;51.036;6.972;2023-03-01T07:02:39;101903.94;;;1.31;86.43
11710;BME280;5911;51.036;6.972;2023-03-01T07:05:07;101906.47;;;1.34;86.27
11710;BME280;5911;51.036;6.972;2023-03-01T07:07:36;101897.81;;;1.34;86.06
11710;BME280;5911;51.036;6.972;2023-03-01T07:10:06;101908.03;;;1.41;86.56
11710;BME280;5911;51.036;6.972;2023-03-01T07:12:34;101908.06;;;1.40;86.71
11710;BME280;5911;51.036;6.972;2023-03-01T07:15:05;101904.56;;;1.41;87.03
11710;BME280;5911;51.036;6.972;2023-03-01T07:17:33;101901.88;;;1.46;86.96
11710;BME280;5911;51.036;6.972;2023-03-01T07:20:01;101906.22;;;1.45;86.86
11710;BME280;5911;51.036;6.972;2023-03-01T07:22:28;101907.97;;;1.45;87.31
11710;BME280;5911;51.036;6.972;2023-03-01T07:24:57;101894.84;;;1.51;88.32
11710;BME280;5911;51.036;6.972;2023-03-01T07:27:25;101904.28;;;1.53;87.56
11710;BME280;5911;51.036;6.972;2023-03-01T07:29:53;101898.03;;;1.62;87.05
11710;BME280;5911;51.036;6.972;2023-03-01T07:32:21;101897.78;;;1.71;87.00
11710;BME280;5911;51.036;6.972;2023-03-01T07:34:51;101904.72;;;1.72;87.87
11710;BME280;5911;51.036;6.972;2023-03-01T07:37:18;101901.22;;;1.73;87.55
11710;BME280;5911;51.036;6.972;2023-03-01T07:39:46;101895.09;;;1.75;88.29
11710;BME280;5911;51.036;6.972;2023-03-01T07:42:16;101893.34;;;1.76;89.12
11710;BME280;5911;51.036;6.972;2023-03-01T07:44:45;101899.38;;;1.78;89.13
11710;BME280;5911;51.036;6.972;2023-03-01T07:47:21;101895.94;;;1.76;89.66
11710;BME280;5911;51.036;6.972;2023-03-01T07:49:49;101890.50;;;1.85;87.93
11710;BME280;5911;51.036;6.972;2023-03-01T07:52:17;101899.03;;;1.92;87.53
11710;BME280;5911;51.036;6.972;2023-03-01T07:54:45;101893.72;;;1.96;87.71
11710;BME280;5911;51.036;6.972;2023-03-01T07:57:13;101890.13;;;2.00;87.58
11710;BME280;5911;51.036;6.972;2023-03-01T07:59:42;101869.50;;;1.93;86.41
11710;BME280;5911;51.036;6.972;2023-03-01T08:02:10;101894.88;;;2.17;87.10
11710;BME280;5911;51.036;6.972;2023-03-01T08:04:38;101897.31;;;2.25;86.56
11710;BME280;5911;51.036;6.972;2023-03-01T08:07:06;101893.72;;;2.29;86.95
11710;BME280;5911;51.036;6.972;2023-03-01T08:09:34;101889.31;;;2.31;87.31
11710;BME280;5911;51.036;6.972;2023-03-01T08:12:02;101882.31;;;2.33;87.24
11710;BME280;5911;51.036;6.972;2023-03-01T08:14:31;101882.13;;;2.40;86.51
11710;BME280;5911;51.036;6.972;2023-03-01T08:17:00;101874.13;;;2.46;84.15
11710;BME280;5911;51.036;6.972;2023-03-01T08:19:29;101888.66;;;2.55;85.27
11710;BME280;5911;51.036;6.972;2023-03-01T08:21:57;101850.88;;;2.40;84.12
11710;BME280;5911;51.036;6.972;2023-03-01T08:24:26;101886.50;;;2.69;82.76
11710;BME280;5911;51.036;6.972;2023-03-01T08:26:54;101883.56;;;2.81;82.37
11710;BME280;5911;51.036;6.972;2023-03-01T08:29:22;101885.31;;;2.81;83.15
11710;BME280;5911;51.036;6.972;2023-03-01T08:31:51;101891.84;;;2.94;79.95
11710;BME280;5911;51.036;6.972;2023-03-01T08:34:20;101891.59;;;3.03;78.75
11710;BME280;5911;51.036;6.972;2023-03-01T08:36:48;101888.84;;;3.08;78.71
11710;BME280;5911;51.036;6.972;2023-03-01T08:39:18;101891.22;;;3.15;77.71
11710;BME280;5911;51.036;6.972;2023-03-01T08:41:47;101898.91;;;3.20;76.31
11710;BME280;5911;51.036;6.972;2023-03-01T08:44:15;101898.78;;;3.23;74.91
11710;BME280;5911;51.036;6.972;2023-03-01T08:46:44;101895.94;;;3.32;71.73
11710;BME280;5911;51.036;6.972;2023-03-01T08:49:14;101889.59;;;3.39;72.07
11710;BME280;5911;51.036;6.972;2023-03-01T08:51:45;101892.94;;;3.44;71.37
11710;BME280;5911;51.036;6.972;2023-03-01T08:54:15;101887.72;;;3.44;71.74
11710;BME280;5911;51.036;6.972;2023-03-01T08:56:44;101884.94;;;3.50;72.06
11710;BME280;5911;51.036;6.972;2023-03-01T08:59:14;101882.19;;;3.53;70.86
11710;BME280;5911;51.036;6.972;2023-03-01T09:01:42;101890.72;;;3.59;72.07
11710;BME280;5911;51.036;6.972;2023-03-01T09:04:11;101854.53;;;3.49;70.34
11710;BME280;5911;51.036;6.972;2023-03-01T09:06:39;101874.00;;;3.66;69.61
11710;BME280;5911;51.036;6.972;2023-03-01T09:09:12;101875.56;;;3.70;68.67
11710;BME280;5911;51.036;6.972;2023-03-01T09:11:42;101851.56;;;3.60;70.09
11710;BME280;5911;51.036;6.972;2023-03-01T09:14:12;101876.88;;;3.83;68.21
11710;BME280;5911;51.036;6.972;2023-03-01T09:16:40;101874.94;;;3.89;68.75
11710;BME280;5911;51.036;6.972;2023-03-01T09:19:08;101870.75;;;3.84;66.58
11710;BME280;5911;51.036;6.972;2023-03-01T09:21:37;101878.19;;;3.96;67.21
11710;BME280;5911;51.036;6.972;2023-03-01T09:24:13;101877.16;;;4.00;64.71
11710;BME280;5911;51.036;6.972;2023-03-01T09:26:42;101871.88;;;4.02;65.49
11710;BME280;5911;51.036;6.972;2023-03-01T09:29:14;101876.97;;;4.06;65.59
11710;BME280;5911;51.036;6.972;2023-03-01T09:31:42;101862.34;;;4.01;64.55
11710;BME280;5911;51.036;6.972;2023-03-01T09:34:10;101870.50;;;4.16;65.04
11710;BME280;5911;51.036;6.972;2023-03-01T09:36:40;101754.38;;;3.53;64.96
11710;BME280;5911;51.036;6.972;2023-03-01T09:39:08;101878.16;;;4.22;63.59
11710;BME280;5911;51.036;6.972;2023-03-01T09:41:50;101836.63;;;4.15;64.10
11710;BME280;5911;51.036;6.972;2023-03-01T09:44:31;101858.63;;;4.33;64.20
11710;BME280;5911;51.036;6.972;2023-03-01T09:47:02;101841.25;;;4.32;62.92
11710;BME280;5911;51.036;6.972;2023-03-01T09:49:32;101822.16;;;4.30;62.36
11710;BME280;5911;51.036;6.972;2023-03-01T09:52:04;101777.22;;;4.21;62.51
11710;BME280;5911;51.036;6.972;2023-03-01T09:54:37;101852.41;;;4.83;62.16
11710;BME280;5911;51.036;6.972;2023-03-01T09:57:16;101845.69;;;5.00;60.70
11710;BME280;5911;51.036;6.972;2023-03-01T10:00:03;101855.28;;;5.21;59.82
11710;BME280;5911;51.036;6.972;2023-03-01T10:02:40;101849.03;;;5.47;58.78
11710;BME280;5911;51.036;6.972;2023-03-01T10:05:21;101851.22;;;5.78;59.13
11710;BME280;5911;51.036;6.972;2023-03-01T10:08:02;101857.41;;;5.97;57.76
11710;BME280;5911;51.036;6.972;2023-03-01T10:10:36;101854.91;;;6.14;57.02
11710;BME280;5911;51.036;6.972;2023-03-01T10:13:13;101853.41;;;6.29;55.59
11710;BME280;5911;51.036;6.972;2023-03-01T10:15:44;101857.91;;;6.46;56.20
11710;BME280;5911;51.036;6.972;2023-03-01T10:18:17;101864.16;;;6.62;55.81
11710;BME280;5911;51.036;6.972;2023-03-01T10:20:51;101846.03;;;6.76;55.16
11710;BME280;5911;51.036;6.972;2023-03-01T10:23:20;101846.25;;;6.90;53.75
11710;BME280;5911;51.036;6.972;2023-03-01T10:25:56;101824.00;;;6.80;52.48
11710;BME280;5911;51.036;6.972;2023-03-01T10:28:42;101845.53;;;7.05;53.36
11710;BME280;5911;51.036;6.972;2023-03-01T10:31:14;101832.47;;;7.23;55.02
11710;BME280;5911;51.036;6.972;2023-03-01T10:33:42;101832.78;;;7.34;51.36
11710;BME280;5911;51.036;6.972;2023-03-01T10:36:10;101828.09;;;7.40;51.77
11710;BME280;5911;51.036;6.972;2023-03-01T10:38:49;101822.94;;;7.56;51.55
11710;BME280;5911;51.036;6.972;2023-03-01T10:41:19;101823.25;;;7.85;53.49
11710;BME280;5911;51.036;6.972;2023-03-01T10:43:49;101802.84;;;7.90;51.19
11710;BME280;5911;51.036;6.972;2023-03-01T10:46:24;101811.16;;;8.15;52.08
11710;BME280;5911;51.036;6.972;2023-03-01T10:49:14;101800.88;;;8.10;49.61
11710;BME280;5911;51.036;6.972;2023-03-01T10:51:43;101810.44;;;8.29;49.41
11710;BME280;5911;51.036;6.972;2023-03-01T10:54:17;101804.75;;;8.54;49.33
11710;BME280;5911;51.036;6.972;2023-03-01T10:56:47;101810.38;;;8.63;47.24
11710;BME280;5911;51.036;6.972;2023-03-01T10:59:25;101810.69;;;8.73;48.05
11710;BME280;5911;51.036;6.972;2023-03-01T11:02:16;101800.53;;;8.98;49.66
11710;BME280;5911;51.036;6.972;2023-03-01T11:04:59;101800.44;;;9.15;48.03
11710;BME280;5911;51.036;6.972;2023-03-01T11:07:27;101803.69;;;9.35;48.04
11710;BME280;5911;51.036;6.972;2023-03-01T11:09:56;101789.13;;;9.59;46.04
11710;BME280;5911;51.036;6.972;2023-03-01T11:12:24;101784.06;;;9.70;46.17
11710;BME280;5911;51.036;6.972;2023-03-01T11:14:54;101790.13;;;10.01;45.40
11710;BME280;5911;51.036;6.972;2023-03-01T11:17:25;101786.34;;;10.35;46.21
11710;BME280;5911;51.036;6.972;2023-03-01T11:20:03;101774.75;;;10.37;43.82
11710;BME280;5911;51.036;6.972;2023-03-01T11:22:33;101765.50;;;10.44;43.87
11710;BME280;5911;51.036;6.972;2023-03-01T11:25:07;101770.28;;;10.66;44.43
11710;BME280;5911;51.036;6.972;2023-03-01T11:27:43;101757.00;;;10.68;42.02
11710;BME280;5911;51.036;6.972;2023-03-01T11:30:18;101760.69;;;10.92;42.17
11710;BME280;5911;51.036;6.972;2023-03-01T11:32:53;101758.59;;;10.97;42.82
11710;BME280;5911;51.036;6.972;2023-03-01T11:35:25;101764.63;;;10.99;41.37
11710;BME280;5911;51.036;6.972;2023-03-01T11:38:03;101759.91;;;11.44;41.13
11710;BME280;5911;51.036;6.972;2023-03-01T11:40:40;101756.25;;;11.59;41.12
11710;BME280;5911;51.036;6.972;2023-03-01T11:43:16;101749.38;;;11.69;40.82
11710;BME280;5911;51.036;6.972;2023-03-01T11:46:22;101747.41;;;11.98;40.59
11710;BME280;5911;51.036;6.972;2023-03-01T11:49:10;101740.38;;;11.72;39.46
11710;BME280;5911;51.036;6.972;2023-03-01T11:51:48;101745.06;;;11.81;40.55
11710;BME280;5911;51.036;6.972;2023-03-01T11:54:30;101734.47;;;11.93;39.99
11710;BME280;5911;51.036;6.972;2023-03-01T11:57:05;101718.19;;;12.12;41.40
11710;BME280;5911;51.036;6.972;2023-03-01T11:59:57;101731.00;;;11.93;40.87
11710;BME280;5911;51.036;6.972;2023-03-01T12:02:54;101731.28;;;11.63;41.29
11710;BME280;5911;51.036;6.972;2023-03-01T12:05:46;101720.56;;;11.26;41.19
11710;BME280;5911;51.036;6.972;2023-03-01T12:08:21;101716.41;;;11.22;41.26
11710;BME280;5911;51.036;6.972;2023-03-01T12:10:57;101679.59;;;10.94;41.24
11710;BME280;5911;51.036;6.972;2023-03-01T12:16:46;101691.59;;;11.12;41.10
11710;BME280;5911;51.036;6.972;2023-03-01T12:19:39;101696.44;;;11.18;41.41
11710;BME280;5911;51.036;6.972;2023-03-01T12:22:18;101694.91;;;11.28;42.00
11710;BME280;5911;51.036;6.972;2023-03-01T12:27:58;101679.19;;;11.00;42.34
11710;BME280;5911;51.036;6.972;2023-03-01T12:30:39;101687.31;;;10.97;42.73
11710;BME280;5911;51.036;6.972;2023-03-01T12:33:18;101674.59;;;11.29;44.02
11710;BME280;5911;51.036;6.972;2023-03-01T12:39:01;101658.94;;;10.74;44.37
11710;BME280;5911;51.036;6.972;2023-03-01T12:41:43;101664.50;;;10.96;43.23
11710;BME280;5911;51.036;6.972;2023-03-01T12:44:26;101659.06;;;11.24;43.78
11710;BME280;5911;51.036;6.972;2023-03-01T12:47:07;101667.63;;;11.41;42.69
11710;BME280;5911;51.036;6.972;2023-03-01T12:49:41;101660.88;;;11.49;42.98
11710;BME280;5911;51.036;6.972;2023-03-01T12:52:17;101644.81;;;11.27;43.09
11710;BME280;5911;51.036;6.972;2023-03-01T12:54:49;101626.31;;;11.14;41.50
11710;BME280;5911;51.036;6.972;2023-03-01T12:57:26;101640.06;;;11.45;41.18
11710;BME280;5911;51.036;6.972;2023-03-01T13:00:17;101634.66;;;11.84;41.22
11710;BME280;5911;51.036;6.972;2023-03-01T13:02:55;101638.78;;;11.88;42.00
11710;BME280;5911;51.036;6.972;2023-03-01T13:05:36;101625.56;;;11.50;40.76
11710;BME280;5911;51.036;6.972;2023-03-01T13:08:14;101631.16;;;11.46;40.53
11710;BME280;5911;51.036;6.972;2023-03-01T13:10:49;101624.94;;;11.47;40.59
11710;BME280;5911;51.036;6.972;2023-03-01T13:13:22;101627.47;;;11.36;41.52
11710;BME280;5911;51.036;6.972;2023-03-01T13:15:51;101619.03;;;11.56;41.83
11710;BME280;5911;51.036;6.972;2023-03-01T13:18:30;101625.78;;;11.73;41.14
11710;BME280;5911;51.036;6.972;2023-03-01T13:21:00;101608.22;;;11.84;39.99
11710;BME280;5911;51.036;6.972;2023-03-01T13:23:33;101611.75;;;12.21;39.22
11710;BME280;5911;51.036;6.972;2023-03-01T13:26:07;101614.94;;;12.61;39.98
11710;BME280;5911;51.036;6.972;2023-03-01T13:28:40;101618.53;;;12.60;38.47
11710;BME280;5911;51.036;6.972;2023-03-01T13:31:09;101608.88;;;12.48;38.69
11710;BME280;5911;51.036;6.972;2023-03-01T13:33:47;101626.59;;;12.59;38.49
11710;BME280;5911;51.036;6.972;2023-03-01T13:36:45;101610.56;;;12.49;38.61
11710;BME280;5911;51.036;6.972;2023-03-01T13:39:39;101607.84;;;12.38;39.61
11710;BME280;5911;51.036;6.972;2023-03-01T13:42:29;101603.44;;;12.26;39.89
11710;BME280;5911;51.036;6.972;2023-03-01T13:44:58;101596.19;;;12.17;38.84